메인 페이지
METAR-TAF:

METAR-TAF

공항 :

오거스타, 메인, 미국

위도: 44-19-14N, 경도: 069-47-50W, 고도: 107m

현재 날씨관측

예보는 42분 전, 17:53시(UTC)에 발표되었습니다.
북동12kt, 순간 최대 풍속 18kt
온도 11°C
습도 43%
기압 1016 hPa
시정: 16.1km
고도 4500ft 상공 흐림

METAR: KAUG 041753Z AUTO 05012G18KT 10SM OVC045 11/M01 A3001 RMK AO2 SLP164 T01111006 10111 20033 56017

시각: 14:35 (18:35 UTC)

예보

예보는 1 시간 15분 전, 17:20시(UTC)에 발표되었습니다.
예보 대상 시간: 04일 18시부터 05일 18시까지 (UTC)
북북동10kt
시정: 10km
고도 3000ft 상공 구름 보통
05일 0400시부터 (UTC)
여러 방향의 바람 3kt
시정: 10km
고도 3000ft 상공 구름 많음

TAF: KAUG 041720Z 0418/0518 02010KT P6SM SCT030 FM050400 VRB03KT P6SM BKN030

4,000개 이상의 공항 관측 자료 및 예보 (METAR 및 TAF 보고).

지도상에서 검색 가능한 기상관측소가 노란 점과 빨간 점으로 표시되어 있습니다.

기상관측소 명을 보려면 표시 위로 마우스를 이동하세요.

날씨 관측과 예보를 보려면 클릭하세요.

지도 변경 : 확대하려면 엑스 표시가 있는 녹색 버튼, 축소하려면 빼기 표시가 있는 녹색 버튼, 다음 페이지의 지도를 보려면 녹색 화살표를 클릭하세요.


METAR-TAF: